Airport ID:KSMD
Update Time (UTC):19/09/2020 10:06
Wind Speed (Knots):3
Wind Direction (Magnetic):30
Temperature (°C):4.4
Dew Point (°C):1.7
Humidity (%):82.8
Altimeter (inHg):30.38
Density Altitude (Feet):
Visibility (Miles):10
Clouds (Hundreds of feet):CLR
Present Weather:
METAR:METAR KSMD 191005Z AUTO 00000KT 10SM CLR 04/02 A3038 RMK A01

The data displayed is for advisory purposes only and is not to be used for flight planning or operations.